createdAt,value
2022-08-09T00:04:11.208Z,1.4
2022-08-09T00:10:26.546Z,1.4
2022-08-09T00:16:49.477Z,2.2
2022-08-09T00:23:54.462Z,2.2
2022-08-09T00:29:40.051Z,1.6
2022-08-09T00:35:52.599Z,1.6
2022-08-09T00:44:09.676Z,2.2
2022-08-09T00:48:35.516Z,2.2
2022-08-09T00:54:58.477Z,1.3
2022-08-09T01:01:18.558Z,1.3
2022-08-09T01:07:59.553Z,2
2022-08-09T01:14:01.891Z,2
2022-08-09T01:20:24.494Z,2.7
2022-08-09T01:26:46.239Z,2.7
2022-08-09T01:33:07.507Z,2.7
2022-08-09T01:39:27.525Z,2.7
2022-08-09T01:45:50.620Z,2.9
2022-08-09T01:52:10.563Z,2.9
2022-08-09T01:58:33.557Z,3
2022-08-09T02:04:53.562Z,3
2022-08-09T02:11:16.954Z,2.8
2022-08-09T02:17:59.550Z,2.8
2022-08-09T02:23:59.624Z,2.2
2022-08-09T02:30:19.583Z,2.2
2022-08-09T02:36:42.487Z,3
2022-08-09T02:43:02.630Z,3
2022-08-09T02:49:27.327Z,2.7
2022-08-09T02:55:47.018Z,2.7
2022-08-09T03:02:09.820Z,5.1
2022-08-09T03:08:28.477Z,5.1
2022-08-09T03:14:51.511Z,3.1
2022-08-09T03:21:11.674Z,3.1
2022-08-09T03:27:37.265Z,3.2
2022-08-09T03:50:27.840Z,3
2022-08-09T03:56:42.495Z,3
2022-08-09T04:03:05.631Z,3.2
2022-08-09T04:09:41.592Z,3.2
2022-08-09T04:16:17.510Z,3.4
2022-08-09T04:22:08.533Z,3.4
2022-08-09T04:28:33.593Z,1.6
2022-08-09T04:34:54.223Z,1.6
2022-08-09T04:41:14.685Z,2.7
2022-08-09T04:47:45.285Z,2.7
2022-08-09T04:53:58.389Z,3.4
2022-08-09T05:00:17.524Z,3.4
2022-08-09T05:06:40.573Z,2.4
2022-08-09T05:13:00.488Z,2.4
2022-08-09T05:19:25.870Z,2.7
2022-08-09T05:25:43.544Z,2.7
2022-08-09T05:32:06.485Z,2
2022-08-09T05:38:26.588Z,2
2022-08-09T05:44:50.551Z,5.4
2022-08-09T05:51:17.024Z,5.4
2022-08-09T05:57:51.531Z,3.3
2022-08-09T06:03:54.835Z,3.3
2022-08-09T06:10:15.768Z,2.6
2022-08-09T06:16:35.713Z,2.6
2022-08-09T06:22:58.513Z,2.6
2022-08-09T06:29:18.478Z,2.6
2022-08-09T06:35:56.647Z,2.7
2022-08-09T06:42:08.317Z,2.7
2022-08-09T06:48:26.063Z,2.1
2022-08-09T06:54:44.646Z,2.1
2022-08-09T07:01:07.950Z,4.8
2022-08-09T07:07:58.501Z,4.8
2022-08-09T07:14:04.582Z,2.4
2022-08-09T07:20:11.795Z,2.4
2022-08-09T07:26:34.804Z,2
2022-08-09T07:32:54.808Z,2
2022-08-09T07:39:20.083Z,2.1
2022-08-09T07:45:39.771Z,2.1
2022-08-09T07:52:03.906Z,3.2
2022-08-09T07:58:21.711Z,3.2
2022-08-09T08:04:48.707Z,3
2022-08-09T08:11:15.473Z,3
2022-08-09T08:17:35.583Z,2.5
2022-08-09T08:23:54.868Z,2.5
2022-08-09T08:30:09.576Z,1.4
2022-08-09T08:36:30.675Z,1.4
2022-08-09T08:42:52.597Z,1
2022-08-09T08:49:12.720Z,1
2022-08-09T09:11:42.516Z,3.5
2022-08-09T09:18:02.510Z,3.5
2022-08-09T09:24:25.637Z,3.5
2022-08-09T09:30:47.345Z,3.5
2022-08-09T09:37:08.486Z,0.9
2022-08-09T09:43:28.526Z,0.9
2022-08-09T09:49:56.671Z,0.5
2022-08-09T09:56:19.959Z,0.5
2022-08-09T10:02:34.798Z,1
2022-08-09T10:08:57.443Z,1
2022-08-09T10:15:25.469Z,1.2
2022-08-09T10:21:37.500Z,1.2
2022-08-09T10:28:00.525Z,0.7
2022-08-09T10:34:33.331Z,0.7
2022-08-09T10:40:44.667Z,2.4
2022-08-09T10:47:03.769Z,2.4
2022-08-09T10:53:26.491Z,0.2
2022-08-09T10:59:55.878Z,0.2
2022-08-09T11:06:09.568Z,1.4
2022-08-09T11:12:30.203Z,1.4
2022-08-09T11:18:52.516Z,2
2022-08-09T11:25:12.588Z,2
2022-08-09T11:31:36.756Z,1.2
2022-08-09T11:37:55.493Z,1.2
2022-08-09T11:44:18.574Z,1.2
2022-08-09T11:50:54.710Z,1.2
2022-08-09T11:57:01.518Z,2
2022-08-09T12:03:50.639Z,2
2022-08-09T12:09:50.438Z,0.6
2022-08-09T12:16:04.498Z,0.6
2022-08-09T12:22:27.534Z,1.3
2022-08-09T12:29:00.861Z,1.3
2022-08-09T12:35:10.953Z,2.1
2022-08-09T12:41:33.787Z,2.1
2022-08-09T12:47:53.541Z,1.6
2022-08-09T12:54:14.129Z,1.6
2022-08-09T13:00:36.559Z,0.9
2022-08-09T13:06:56.645Z,0.9
2022-08-09T13:13:19.786Z,0.8
2022-08-09T13:20:06.644Z,0.8
2022-08-09T13:26:02.590Z,1.8
2022-08-09T13:32:26.533Z,1.8
2022-08-09T13:38:56.414Z,1.8
2022-08-09T13:45:08.293Z,1.8
2022-08-09T13:51:28.542Z,0.5
2022-08-09T13:57:53.148Z,0.5
2022-08-09T14:04:11.975Z,1.3
2022-08-09T14:10:37.817Z,1.3
2022-08-09T14:16:54.492Z,1.2
2022-08-09T14:41:39.943Z,1.5
2022-08-09T14:48:00.486Z,1.5
2022-08-09T14:54:22.535Z,1
2022-08-09T15:00:42.748Z,1
2022-08-09T15:07:05.490Z,1.4
2022-08-09T15:13:25.531Z,1.4
2022-08-09T15:19:54.724Z,1.9
2022-08-09T15:26:09.249Z,1.9
2022-08-09T15:32:31.493Z,1.4
2022-08-09T15:38:51.793Z,1.4
2022-08-09T15:45:14.541Z,1.8
2022-08-09T15:51:44.807Z,1.8
2022-08-09T15:57:57.538Z,1.4
2022-08-09T16:04:17.486Z,1.4
2022-08-09T16:10:55.427Z,1.5
2022-08-09T16:17:00.528Z,1.5
2022-08-09T16:23:23.482Z,1.8
2022-08-09T16:29:49.691Z,1.8
2022-08-09T16:36:09.172Z,1
2022-08-09T16:42:26.498Z,1
2022-08-09T16:48:55.782Z,1.6
2022-08-09T16:55:12.052Z,1.6
2022-08-09T17:01:33.783Z,2.3
2022-08-09T17:08:41.801Z,2.3
2022-08-09T17:14:16.075Z,0.5
2022-08-09T17:20:38.984Z,0.5
2022-08-09T17:26:58.521Z,1.2
2022-08-09T17:33:22.873Z,1.2
2022-08-09T17:39:48.457Z,2
2022-08-09T17:46:02.390Z,2
2022-08-09T17:52:24.497Z,3.7
2022-08-09T17:58:44.518Z,3.7
2022-08-09T18:05:07.512Z,1.4
2022-08-09T18:11:27.490Z,1.4
2022-08-09T18:18:01.289Z,1.5
2022-08-09T18:24:14.154Z,1.5
2022-08-09T18:30:34.370Z,2.2
2022-08-09T18:36:53.679Z,2.2
2022-08-09T18:43:16.510Z,2
2022-08-09T18:49:41.376Z,2
2022-08-09T18:56:05.399Z,1.2
2022-08-09T19:02:19.540Z,1.2
2022-08-09T19:08:42.510Z,1.9
2022-08-09T19:15:02.846Z,1.9
2022-08-09T19:21:47.456Z,1.9
2022-08-09T19:27:45.498Z,1.9
2022-08-09T19:34:08.454Z,1.4
2022-08-09T19:40:33.350Z,1.4
2022-08-09T19:46:53.217Z,1
2022-08-09T19:53:11.474Z,1
2022-08-09T19:59:40.387Z,0.6
2022-08-09T20:05:54.535Z,0.6
2022-08-09T20:12:27.350Z,1.6
2022-08-09T20:28:48.338Z,0.9
2022-08-09T20:35:05.998Z,1.8
2022-08-09T20:41:32.364Z,1.8
2022-08-09T20:47:48.833Z,1.7
2022-08-09T20:54:10.649Z,1.7
2022-08-09T21:00:32.282Z,1.4
2022-08-09T21:06:51.479Z,1.4
2022-08-09T21:13:14.465Z,2
2022-08-09T21:20:05.417Z,2
2022-08-09T21:25:59.573Z,1.9
2022-08-09T21:32:18.588Z,1.9
2022-08-09T21:38:40.498Z,1.8
2022-08-09T21:45:00.463Z,1.8
2022-08-09T21:51:23.996Z,1.3
2022-08-09T21:57:59.329Z,1.3
2022-08-09T22:22:01.482Z,3.3
2022-08-09T22:28:29.777Z,3.3
2022-08-09T22:34:44.454Z,3.3
2022-08-09T22:41:04.526Z,3.3
2022-08-09T22:48:06.574Z,1.8
2022-08-09T22:53:58.820Z,1.8
2022-08-09T23:00:11.908Z,0.9
2022-08-09T23:06:32.773Z,0.9
2022-08-09T23:12:53.526Z,1.8
2022-08-09T23:19:13.503Z,1.8
2022-08-09T23:25:36.511Z,2.5
2022-08-09T23:31:56.492Z,2.5
2022-08-09T23:38:19.497Z,1.4
2022-08-09T23:44:39.484Z,1.4
2022-08-09T23:51:02.484Z,1
2022-08-09T23:57:22.530Z,1
